sensor_id;sensor_type;location;lat;lon;timestamp;P1;durP1;ratioP1;P2;durP2;ratioP2
25717;SDS011;13574;52.040;5.692;2023-02-28T00:00:49;7.75;;;4.10;;
25717;SDS011;13574;52.040;5.692;2023-02-28T00:03:15;8.88;;;4.57;;
25717;SDS011;13574;52.040;5.692;2023-02-28T00:05:41;8.98;;;3.92;;
25717;SDS011;13574;52.040;5.692;2023-02-28T00:08:07;6.97;;;4.00;;
25717;SDS011;13574;52.040;5.692;2023-02-28T00:10:33;6.82;;;3.80;;
25717;SDS011;13574;52.040;5.692;2023-02-28T00:13:02;8.63;;;3.90;;
25717;SDS011;13574;52.040;5.692;2023-02-28T00:15:30;5.90;;;3.67;;
25717;SDS011;13574;52.040;5.692;2023-02-28T00:17:56;7.65;;;4.38;;
25717;SDS011;13574;52.040;5.692;2023-02-28T00:20:22;7.03;;;3.92;;
25717;SDS011;13574;52.040;5.692;2023-02-28T00:22:49;11.13;;;4.80;;
25717;SDS011;13574;52.040;5.692;2023-02-28T00:25:17;7.60;;;3.95;;
25717;SDS011;13574;52.040;5.692;2023-02-28T00:27:46;7.63;;;4.13;;
25717;SDS011;13574;52.040;5.692;2023-02-28T00:30:14;8.65;;;4.03;;
25717;SDS011;13574;52.040;5.692;2023-02-28T00:32:42;7.25;;;4.28;;
25717;SDS011;13574;52.040;5.692;2023-02-28T00:35:09;8.38;;;4.35;;
25717;SDS011;13574;52.040;5.692;2023-02-28T00:37:35;6.18;;;3.80;;
25717;SDS011;13574;52.040;5.692;2023-02-28T00:40:01;7.07;;;4.20;;
25717;SDS011;13574;52.040;5.692;2023-02-28T00:42:29;6.10;;;3.70;;
25717;SDS011;13574;52.040;5.692;2023-02-28T00:44:55;6.55;;;4.15;;
25717;SDS011;13574;52.040;5.692;2023-02-28T00:47:21;9.07;;;4.15;;
25717;SDS011;13574;52.040;5.692;2023-02-28T00:49:47;8.02;;;4.28;;
25717;SDS011;13574;52.040;5.692;2023-02-28T00:52:12;9.27;;;4.47;;
25717;SDS011;13574;52.040;5.692;2023-02-28T00:54:38;7.57;;;4.03;;
25717;SDS011;13574;52.040;5.692;2023-02-28T00:57:04;7.55;;;4.45;;
25717;SDS011;13574;52.040;5.692;2023-02-28T00:59:32;7.43;;;4.35;;
25717;SDS011;13574;52.040;5.692;2023-02-28T01:01:57;7.07;;;4.63;;
25717;SDS011;13574;52.040;5.692;2023-02-28T01:04:23;9.77;;;4.88;;
25717;SDS011;13574;52.040;5.692;2023-02-28T01:06:49;9.15;;;4.30;;
25717;SDS011;13574;52.040;5.692;2023-02-28T01:09:14;9.35;;;4.97;;
25717;SDS011;13574;52.040;5.692;2023-02-28T01:11:40;10.20;;;4.50;;
25717;SDS011;13574;52.040;5.692;2023-02-28T01:14:09;9.15;;;4.65;;
25717;SDS011;13574;52.040;5.692;2023-02-28T01:16:40;9.00;;;4.03;;
25717;SDS011;13574;52.040;5.692;2023-02-28T01:19:06;7.03;;;4.45;;
25717;SDS011;13574;52.040;5.692;2023-02-28T01:21:32;7.22;;;4.60;;
25717;SDS011;13574;52.040;5.692;2023-02-28T01:23:59;10.40;;;4.70;;
25717;SDS011;13574;52.040;5.692;2023-02-28T01:26:25;9.48;;;4.55;;
25717;SDS011;13574;52.040;5.692;2023-02-28T01:28:51;9.30;;;4.50;;
25717;SDS011;13574;52.040;5.692;2023-02-28T01:31:18;9.15;;;4.70;;
25717;SDS011;13574;52.040;5.692;2023-02-28T01:33:45;9.45;;;4.15;;
25717;SDS011;13574;52.040;5.692;2023-02-28T01:36:13;8.82;;;4.82;;
25717;SDS011;13574;52.040;5.692;2023-02-28T01:38:41;7.38;;;4.22;;
25717;SDS011;13574;52.040;5.692;2023-02-28T01:41:07;8.52;;;4.03;;
25717;SDS011;13574;52.040;5.692;2023-02-28T01:46:08;7.32;;;4.47;;
25717;SDS011;13574;52.040;5.692;2023-02-28T01:48:35;8.25;;;4.32;;
25717;SDS011;13574;52.040;5.692;2023-02-28T01:51:08;10.18;;;4.65;;
25717;SDS011;13574;52.040;5.692;2023-02-28T01:53:39;7.32;;;4.28;;
25717;SDS011;13574;52.040;5.692;2023-02-28T01:56:10;8.85;;;4.53;;
25717;SDS011;13574;52.040;5.692;2023-02-28T01:58:39;9.90;;;4.40;;
25717;SDS011;13574;52.040;5.692;2023-02-28T02:01:05;8.63;;;4.22;;
25717;SDS011;13574;52.040;5.692;2023-02-28T02:03:30;9.98;;;4.47;;
25717;SDS011;13574;52.040;5.692;2023-02-28T02:05:56;8.65;;;4.80;;
25717;SDS011;13574;52.040;5.692;2023-02-28T02:08:23;8.88;;;4.55;;
25717;SDS011;13574;52.040;5.692;2023-02-28T02:10:52;8.98;;;4.57;;
25717;SDS011;13574;52.040;5.692;2023-02-28T02:18:46;8.63;;;4.38;;
25717;SDS011;13574;52.040;5.692;2023-02-28T02:35:32;8.93;;;4.90;;
25717;SDS011;13574;52.040;5.692;2023-02-28T02:38:34;9.38;;;4.30;;
25717;SDS011;13574;52.040;5.692;2023-02-28T02:41:11;8.38;;;4.25;;
25717;SDS011;13574;52.040;5.692;2023-02-28T02:44:02;8.88;;;4.57;;
25717;SDS011;13574;52.040;5.692;2023-02-28T02:46:45;7.70;;;4.40;;
25717;SDS011;13574;52.040;5.692;2023-02-28T02:49:26;8.07;;;4.40;;
25717;SDS011;13574;52.040;5.692;2023-02-28T02:51:56;9.07;;;4.45;;
25717;SDS011;13574;52.040;5.692;2023-02-28T02:54:25;8.98;;;4.57;;
25717;SDS011;13574;52.040;5.692;2023-02-28T02:56:54;6.78;;;3.55;;
25717;SDS011;13574;52.040;5.692;2023-02-28T02:59:23;10.85;;;4.55;;
25717;SDS011;13574;52.040;5.692;2023-02-28T03:01:54;8.40;;;4.57;;
25717;SDS011;13574;52.040;5.692;2023-02-28T03:04:23;8.90;;;5.30;;
25717;SDS011;13574;52.040;5.692;2023-02-28T03:06:51;9.85;;;4.90;;
25717;SDS011;13574;52.040;5.692;2023-02-28T03:09:20;11.38;;;5.38;;
25717;SDS011;13574;52.040;5.692;2023-02-28T03:11:48;9.73;;;4.97;;
25717;SDS011;13574;52.040;5.692;2023-02-28T03:14:25;7.63;;;4.50;;
25717;SDS011;13574;52.040;5.692;2023-02-28T03:23:16;8.75;;;4.95;;
25717;SDS011;13574;52.040;5.692;2023-02-28T03:25:50;8.05;;;5.00;;
25717;SDS011;13574;52.040;5.692;2023-02-28T03:28:31;8.45;;;4.95;;
25717;SDS011;13574;52.040;5.692;2023-02-28T03:31:10;8.32;;;5.13;;
25717;SDS011;13574;52.040;5.692;2023-02-28T03:33:49;11.20;;;5.30;;
25717;SDS011;13574;52.040;5.692;2023-02-28T03:36:25;9.95;;;5.07;;
25717;SDS011;13574;52.040;5.692;2023-02-28T03:38:55;10.90;;;5.22;;
25717;SDS011;13574;52.040;5.692;2023-02-28T03:41:38;9.63;;;5.57;;
25717;SDS011;13574;52.040;5.692;2023-02-28T03:44:17;10.38;;;5.30;;
25717;SDS011;13574;52.040;5.692;2023-02-28T03:52:22;10.82;;;5.57;;
25717;SDS011;13574;52.040;5.692;2023-02-28T03:54:56;11.50;;;5.65;;
25717;SDS011;13574;52.040;5.692;2023-02-28T03:57:32;8.77;;;5.55;;
25717;SDS011;13574;52.040;5.692;2023-02-28T04:00:03;9.48;;;5.60;;
25717;SDS011;13574;52.040;5.692;2023-02-28T04:02:59;10.15;;;5.80;;
25717;SDS011;13574;52.040;5.692;2023-02-28T04:05:24;9.65;;;5.25;;
25717;SDS011;13574;52.040;5.692;2023-02-28T04:07:52;8.38;;;4.75;;
25717;SDS011;13574;52.040;5.692;2023-02-28T04:10:18;8.75;;;4.85;;
25717;SDS011;13574;52.040;5.692;2023-02-28T04:12:44;7.68;;;4.65;;
25717;SDS011;13574;52.040;5.692;2023-02-28T04:15:10;10.27;;;4.75;;
25717;SDS011;13574;52.040;5.692;2023-02-28T04:17:36;7.57;;;4.55;;
25717;SDS011;13574;52.040;5.692;2023-02-28T04:20:02;8.15;;;5.05;;
25717;SDS011;13574;52.040;5.692;2023-02-28T04:22:28;11.93;;;4.57;;
25717;SDS011;13574;52.040;5.692;2023-02-28T04:24:54;8.10;;;4.65;;
25717;SDS011;13574;52.040;5.692;2023-02-28T04:27:20;8.57;;;4.85;;
25717;SDS011;13574;52.040;5.692;2023-02-28T04:29:46;8.30;;;4.53;;
25717;SDS011;13574;52.040;5.692;2023-02-28T04:32:12;7.75;;;3.92;;
25717;SDS011;13574;52.040;5.692;2023-02-28T04:34:38;7.13;;;4.30;;
25717;SDS011;13574;52.040;5.692;2023-02-28T04:37:04;7.22;;;4.35;;
25717;SDS011;13574;52.040;5.692;2023-02-28T04:39:30;10.77;;;4.68;;
25717;SDS011;13574;52.040;5.692;2023-02-28T04:41:59;6.43;;;4.25;;
25717;SDS011;13574;52.040;5.692;2023-02-28T04:44:25;8.02;;;4.50;;
25717;SDS011;13574;52.040;5.692;2023-02-28T04:46:50;6.30;;;4.18;;
25717;SDS011;13574;52.040;5.692;2023-02-28T04:49:16;7.97;;;3.80;;
25717;SDS011;13574;52.040;5.692;2023-02-28T04:51:42;5.80;;;4.13;;
25717;SDS011;13574;52.040;5.692;2023-02-28T04:54:07;5.10;;;3.55;;
25717;SDS011;13574;52.040;5.692;2023-02-28T04:56:33;5.90;;;3.78;;
25717;SDS011;13574;52.040;5.692;2023-02-28T04:58:59;5.43;;;3.90;;
25717;SDS011;13574;52.040;5.692;2023-02-28T05:01:28;10.98;;;4.00;;
25717;SDS011;13574;52.040;5.692;2023-02-28T05:03:57;6.47;;;4.10;;
25717;SDS011;13574;52.040;5.692;2023-02-28T05:06:24;7.78;;;4.30;;
25717;SDS011;13574;52.040;5.692;2023-02-28T05:08:51;5.95;;;3.83;;
25717;SDS011;13574;52.040;5.692;2023-02-28T05:11:25;5.90;;;4.00;;
25717;SDS011;13574;52.040;5.692;2023-02-28T05:14:00;7.35;;;3.88;;
25717;SDS011;13574;52.040;5.692;2023-02-28T05:16:26;5.15;;;3.50;;
25717;SDS011;13574;52.040;5.692;2023-02-28T05:18:52;7.68;;;3.70;;
25717;SDS011;13574;52.040;5.692;2023-02-28T05:23:53;6.80;;;3.88;;
25717;SDS011;13574;52.040;5.692;2023-02-28T05:26:19;7.55;;;4.10;;
25717;SDS011;13574;52.040;5.692;2023-02-28T05:28:45;8.57;;;3.92;;
25717;SDS011;13574;52.040;5.692;2023-02-28T05:31:12;7.40;;;3.97;;
25717;SDS011;13574;52.040;5.692;2023-02-28T05:33:38;6.32;;;4.18;;
25717;SDS011;13574;52.040;5.692;2023-02-28T05:36:05;6.97;;;3.80;;
25717;SDS011;13574;52.040;5.692;2023-02-28T05:38:31;6.00;;;3.83;;
25717;SDS011;13574;52.040;5.692;2023-02-28T05:40:57;6.15;;;3.38;;
25717;SDS011;13574;52.040;5.692;2023-02-28T05:43:23;8.82;;;3.75;;
25717;SDS011;13574;52.040;5.692;2023-02-28T05:45:48;8.10;;;3.55;;
25717;SDS011;13574;52.040;5.692;2023-02-28T05:48:14;5.53;;;3.40;;
25717;SDS011;13574;52.040;5.692;2023-02-28T05:50:40;6.63;;;3.50;;
25717;SDS011;13574;52.040;5.692;2023-02-28T05:53:07;3.90;;;2.83;;
25717;SDS011;13574;52.040;5.692;2023-02-28T05:55:33;5.03;;;3.33;;
25717;SDS011;13574;52.040;5.692;2023-02-28T05:58:01;6.20;;;3.30;;
25717;SDS011;13574;52.040;5.692;2023-02-28T06:00:26;5.38;;;2.90;;
25717;SDS011;13574;52.040;5.692;2023-02-28T06:02:52;5.97;;;3.00;;
25717;SDS011;13574;52.040;5.692;2023-02-28T06:05:21;5.53;;;3.40;;
25717;SDS011;13574;52.040;5.692;2023-02-28T06:07:47;5.43;;;3.28;;
25717;SDS011;13574;52.040;5.692;2023-02-28T06:10:13;5.57;;;3.58;;
25717;SDS011;13574;52.040;5.692;2023-02-28T06:12:39;6.03;;;3.13;;
25717;SDS011;13574;52.040;5.692;2023-02-28T06:15:07;7.25;;;3.38;;
25717;SDS011;13574;52.040;5.692;2023-02-28T06:17:37;7.47;;;3.67;;
25717;SDS011;13574;52.040;5.692;2023-02-28T06:20:03;5.65;;;3.47;;
25717;SDS011;13574;52.040;5.692;2023-02-28T06:22:29;4.68;;;3.20;;
25717;SDS011;13574;52.040;5.692;2023-02-28T06:24:55;7.38;;;3.35;;
25717;SDS011;13574;52.040;5.692;2023-02-28T06:27:22;5.78;;;3.33;;
25717;SDS011;13574;52.040;5.692;2023-02-28T06:29:47;5.85;;;3.13;;
25717;SDS011;13574;52.040;5.692;2023-02-28T06:32:14;6.53;;;3.33;;
25717;SDS011;13574;52.040;5.692;2023-02-28T06:34:40;5.05;;;3.35;;
25717;SDS011;13574;52.040;5.692;2023-02-28T06:37:06;7.38;;;3.53;;
25717;SDS011;13574;52.040;5.692;2023-02-28T06:39:32;5.45;;;3.78;;
25717;SDS011;13574;52.040;5.692;2023-02-28T06:41:57;8.23;;;3.88;;
25717;SDS011;13574;52.040;5.692;2023-02-28T06:44:23;6.97;;;3.55;;
25717;SDS011;13574;52.040;5.692;2023-02-28T06:46:49;6.05;;;4.10;;
25717;SDS011;13574;52.040;5.692;2023-02-28T06:49:15;8.18;;;3.63;;
25717;SDS011;13574;52.040;5.692;2023-02-28T06:51:43;5.85;;;3.70;;
25717;SDS011;13574;52.040;5.692;2023-02-28T06:54:12;5.35;;;3.85;;
25717;SDS011;13574;52.040;5.692;2023-02-28T06:56:38;7.88;;;3.70;;
25717;SDS011;13574;52.040;5.692;2023-02-28T06:59:05;6.13;;;3.60;;
25717;SDS011;13574;52.040;5.692;2023-02-28T07:01:36;6.72;;;3.60;;
25717;SDS011;13574;52.040;5.692;2023-02-28T07:04:02;8.40;;;3.53;;
25717;SDS011;13574;52.040;5.692;2023-02-28T07:06:30;5.65;;;3.60;;
25717;SDS011;13574;52.040;5.692;2023-02-28T07:08:56;5.00;;;3.97;;
25717;SDS011;13574;52.040;5.692;2023-02-28T07:11:23;6.28;;;3.63;;
25717;SDS011;13574;52.040;5.692;2023-02-28T07:13:55;9.38;;;4.15;;
25717;SDS011;13574;52.040;5.692;2023-02-28T07:16:22;7.35;;;3.92;;
25717;SDS011;13574;52.040;5.692;2023-02-28T07:18:48;6.40;;;3.90;;
25717;SDS011;13574;52.040;5.692;2023-02-28T07:21:14;5.80;;;3.78;;
25717;SDS011;13574;52.040;5.692;2023-02-28T07:23:40;7.97;;;4.15;;
25717;SDS011;13574;52.040;5.692;2023-02-28T07:26:07;5.03;;;3.88;;
25717;SDS011;13574;52.040;5.692;2023-02-28T07:28:39;6.03;;;3.72;;
25717;SDS011;13574;52.040;5.692;2023-02-28T07:31:08;7.18;;;4.03;;
25717;SDS011;13574;52.040;5.692;2023-02-28T07:33:35;6.40;;;4.07;;
25717;SDS011;13574;52.040;5.692;2023-02-28T07:36:04;7.07;;;4.05;;
25717;SDS011;13574;52.040;5.692;2023-02-28T07:38:33;6.00;;;3.92;;
25717;SDS011;13574;52.040;5.692;2023-02-28T07:41:00;7.75;;;4.57;;
25717;SDS011;13574;52.040;5.692;2023-02-28T07:43:29;6.30;;;4.15;;
25717;SDS011;13574;52.040;5.692;2023-02-28T07:45:55;7.18;;;4.22;;
25717;SDS011;13574;52.040;5.692;2023-02-28T07:48:30;7.00;;;3.92;;
25717;SDS011;13574;52.040;5.692;2023-02-28T07:50:57;5.72;;;3.75;;
25717;SDS011;13574;52.040;5.692;2023-02-28T07:53:23;6.05;;;4.05;;
25717;SDS011;13574;52.040;5.692;2023-02-28T07:55:54;6.25;;;3.80;;
25717;SDS011;13574;52.040;5.692;2023-02-28T07:58:24;7.20;;;4.20;;
25717;SDS011;13574;52.040;5.692;2023-02-28T08:00:50;8.30;;;3.50;;
25717;SDS011;13574;52.040;5.692;2023-02-28T08:03:19;5.30;;;4.00;;
25717;SDS011;13574;52.040;5.692;2023-02-28T08:05:46;4.53;;;3.33;;
25717;SDS011;13574;52.040;5.692;2023-02-28T08:08:12;9.05;;;3.72;;
25717;SDS011;13574;52.040;5.692;2023-02-28T08:10:39;7.20;;;3.83;;
25717;SDS011;13574;52.040;5.692;2023-02-28T08:13:05;6.25;;;3.33;;
25717;SDS011;13574;52.040;5.692;2023-02-28T08:15:30;6.40;;;3.30;;
25717;SDS011;13574;52.040;5.692;2023-02-28T08:17:56;7.03;;;3.55;;
25717;SDS011;13574;52.040;5.692;2023-02-28T08:20:23;6.70;;;3.20;;
25717;SDS011;13574;52.040;5.692;2023-02-28T08:22:49;4.10;;;2.67;;
25717;SDS011;13574;52.040;5.692;2023-02-28T08:25:15;5.55;;;2.97;;
25717;SDS011;13574;52.040;5.692;2023-02-28T08:27:41;5.57;;;2.50;;
25717;SDS011;13574;52.040;5.692;2023-02-28T08:30:06;3.65;;;2.40;;
25717;SDS011;13574;52.040;5.692;2023-02-28T08:32:34;6.25;;;2.30;;
25717;SDS011;13574;52.040;5.692;2023-02-28T08:35:00;4.07;;;1.88;;
25717;SDS011;13574;52.040;5.692;2023-02-28T08:37:27;2.65;;;1.55;;
25717;SDS011;13574;52.040;5.692;2023-02-28T08:39:53;3.03;;;1.83;;
25717;SDS011;13574;52.040;5.692;2023-02-28T08:42:19;4.40;;;1.80;;
25717;SDS011;13574;52.040;5.692;2023-02-28T08:44:45;3.70;;;1.80;;
25717;SDS011;13574;52.040;5.692;2023-02-28T08:47:10;3.17;;;1.98;;
25717;SDS011;13574;52.040;5.692;2023-02-28T08:49:36;4.13;;;2.10;;
25717;SDS011;13574;52.040;5.692;2023-02-28T08:52:02;3.85;;;1.88;;
25717;SDS011;13574;52.040;5.692;2023-02-28T08:54:28;2.60;;;1.73;;
25717;SDS011;13574;52.040;5.692;2023-02-28T08:56:56;4.43;;;2.00;;
25717;SDS011;13574;52.040;5.692;2023-02-28T08:59:22;2.65;;;1.80;;
25717;SDS011;13574;52.040;5.692;2023-02-28T09:01:48;3.53;;;1.98;;
25717;SDS011;13574;52.040;5.692;2023-02-28T09:04:13;5.15;;;1.98;;
25717;SDS011;13574;52.040;5.692;2023-02-28T09:06:39;3.72;;;1.80;;
25717;SDS011;13574;52.040;5.692;2023-02-28T09:09:05;3.17;;;2.03;;
25717;SDS011;13574;52.040;5.692;2023-02-28T09:11:32;3.10;;;1.98;;
25717;SDS011;13574;52.040;5.692;2023-02-28T09:13:59;2.50;;;1.83;;
25717;SDS011;13574;52.040;5.692;2023-02-28T09:16:25;3.70;;;2.20;;
25717;SDS011;13574;52.040;5.692;2023-02-28T09:18:51;5.15;;;2.08;;
25717;SDS011;13574;52.040;5.692;2023-02-28T09:21:17;4.35;;;2.38;;
25717;SDS011;13574;52.040;5.692;2023-02-28T09:23:44;7.30;;;2.00;;
25717;SDS011;13574;52.040;5.692;2023-02-28T09:26:15;2.55;;;1.80;;
25717;SDS011;13574;52.040;5.692;2023-02-28T09:28:43;2.08;;;1.55;;
25717;SDS011;13574;52.040;5.692;2023-02-28T09:31:13;2.15;;;1.55;;
25717;SDS011;13574;52.040;5.692;2023-02-28T09:33:41;3.30;;;2.10;;
25717;SDS011;13574;52.040;5.692;2023-02-28T09:36:07;3.40;;;2.00;;
25717;SDS011;13574;52.040;5.692;2023-02-28T09:38:33;3.53;;;1.88;;
25717;SDS011;13574;52.040;5.692;2023-02-28T09:41:03;3.28;;;1.83;;
25717;SDS011;13574;52.040;5.692;2023-02-28T09:43:36;2.72;;;1.70;;
25717;SDS011;13574;52.040;5.692;2023-02-28T09:46:08;2.95;;;1.75;;
25717;SDS011;13574;52.040;5.692;2023-02-28T09:48:50;3.90;;;1.80;;
25717;SDS011;13574;52.040;5.692;2023-02-28T09:54:13;2.97;;;1.88;;
25717;SDS011;13574;52.040;5.692;2023-02-28T09:56:44;5.85;;;2.00;;
25717;SDS011;13574;52.040;5.692;2023-02-28T09:59:26;2.83;;;1.75;;
25717;SDS011;13574;52.040;5.692;2023-02-28T10:08:14;5.88;;;1.70;;
25717;SDS011;13574;52.040;5.692;2023-02-28T10:10:57;2.47;;;1.85;;
25717;SDS011;13574;52.040;5.692;2023-02-28T10:16:13;3.58;;;1.83;;
25717;SDS011;13574;52.040;5.692;2023-02-28T10:21:20;3.40;;;1.85;;
25717;SDS011;13574;52.040;5.692;2023-02-28T10:23:49;4.65;;;1.80;;
25717;SDS011;13574;52.040;5.692;2023-02-28T10:26:24;3.00;;;1.80;;
25717;SDS011;13574;52.040;5.692;2023-02-28T10:28:53;2.60;;;1.70;;
25717;SDS011;13574;52.040;5.692;2023-02-28T10:31:19;2.33;;;1.50;;
25717;SDS011;13574;52.040;5.692;2023-02-28T10:33:46;2.75;;;1.50;;
25717;SDS011;13574;52.040;5.692;2023-02-28T10:36:17;3.17;;;1.55;;
25717;SDS011;13574;52.040;5.692;2023-02-28T10:38:45;2.72;;;1.73;;
25717;SDS011;13574;52.040;5.692;2023-02-28T10:41:16;3.85;;;1.80;;
25717;SDS011;13574;52.040;5.692;2023-02-28T10:43:53;4.68;;;1.90;;
25717;SDS011;13574;52.040;5.692;2023-02-28T10:46:45;2.25;;;1.60;;
25717;SDS011;13574;52.040;5.692;2023-02-28T10:49:20;2.72;;;1.70;;
25717;SDS011;13574;52.040;5.692;2023-02-28T10:51:48;5.75;;;1.70;;
25717;SDS011;13574;52.040;5.692;2023-02-28T10:54:27;2.55;;;1.42;;
25717;SDS011;13574;52.040;5.692;2023-02-28T10:59:45;6.80;;;2.17;;
25717;SDS011;13574;52.040;5.692;2023-02-28T11:04:58;2.53;;;1.83;;
25717;SDS011;13574;52.040;5.692;2023-02-28T11:07:24;4.15;;;2.05;;
25717;SDS011;13574;52.040;5.692;2023-02-28T11:09:53;8.65;;;2.63;;
25717;SDS011;13574;52.040;5.692;2023-02-28T11:12:22;2.90;;;1.83;;
25717;SDS011;13574;52.040;5.692;2023-02-28T11:14:58;3.95;;;2.03;;
25717;SDS011;13574;52.040;5.692;2023-02-28T11:17:32;2.78;;;1.85;;
25717;SDS011;13574;52.040;5.692;2023-02-28T11:20:05;4.05;;;2.00;;
25717;SDS011;13574;52.040;5.692;2023-02-28T11:22:33;2.80;;;1.90;;
25717;SDS011;13574;52.040;5.692;2023-02-28T11:25:37;3.75;;;1.92;;
25717;SDS011;13574;52.040;5.692;2023-02-28T11:27:57;3.05;;;1.70;;
25717;SDS011;13574;52.040;5.692;2023-02-28T11:32:52;2.50;;;1.70;;
25717;SDS011;13574;52.040;5.692;2023-02-28T11:35:21;3.85;;;1.70;;
25717;SDS011;13574;52.040;5.692;2023-02-28T11:37:51;3.85;;;1.58;;
25717;SDS011;13574;52.040;5.692;2023-02-28T11:40:18;5.22;;;1.80;;
25717;SDS011;13574;52.040;5.692;2023-02-28T11:45:49;3.28;;;1.83;;
25717;SDS011;13574;52.040;5.692;2023-02-28T11:51:13;2.83;;;1.90;;
25717;SDS011;13574;52.040;5.692;2023-02-28T11:54:03;2.70;;;1.70;;
25717;SDS011;13574;52.040;5.692;2023-02-28T11:56:52;5.07;;;1.70;;
25717;SDS011;13574;52.040;5.692;2023-02-28T12:15:29;4.00;;;2.03;;
25717;SDS011;13574;52.040;5.692;2023-02-28T12:21:18;3.67;;;1.80;;
25717;SDS011;13574;52.040;5.692;2023-02-28T12:26:28;3.42;;;2.15;;
25717;SDS011;13574;52.040;5.692;2023-02-28T12:29:09;3.30;;;1.90;;
25717;SDS011;13574;52.040;5.692;2023-02-28T12:31:40;4.97;;;2.00;;
25717;SDS011;13574;52.040;5.692;2023-02-28T12:34:16;3.72;;;2.15;;
25717;SDS011;13574;52.040;5.692;2023-02-28T12:36:56;3.63;;;2.42;;
25717;SDS011;13574;52.040;5.692;2023-02-28T12:39:26;3.93;;;2.13;;
25717;SDS011;13574;52.040;5.692;2023-02-28T12:41:59;2.90;;;2.10;;
25717;SDS011;13574;52.040;5.692;2023-02-28T12:44:40;4.45;;;2.25;;
25717;SDS011;13574;52.040;5.692;2023-02-28T12:47:15;3.75;;;2.22;;
25717;SDS011;13574;52.040;5.692;2023-02-28T12:52:36;3.40;;;2.33;;
25717;SDS011;13574;52.040;5.692;2023-02-28T12:55:16;3.10;;;2.28;;
25717;SDS011;13574;52.040;5.692;2023-02-28T13:09:38;5.18;;;2.50;;
25717;SDS011;13574;52.040;5.692;2023-02-28T13:12:14;4.28;;;2.65;;
25717;SDS011;13574;52.040;5.692;2023-02-28T13:14:41;2.83;;;2.10;;
25717;SDS011;13574;52.040;5.692;2023-02-28T13:25:49;3.38;;;2.30;;
25717;SDS011;13574;52.040;5.692;2023-02-28T13:27:55;2.53;;;2.05;;
25717;SDS011;13574;52.040;5.692;2023-02-28T13:33:36;5.00;;;2.20;;
25717;SDS011;13574;52.040;5.692;2023-02-28T13:36:26;4.35;;;2.17;;
25717;SDS011;13574;52.040;5.692;2023-02-28T13:39:00;3.17;;;2.15;;
25717;SDS011;13574;52.040;5.692;2023-02-28T13:44:09;3.00;;;2.13;;
25717;SDS011;13574;52.040;5.692;2023-02-28T13:49:31;3.85;;;2.20;;
25717;SDS011;13574;52.040;5.692;2023-02-28T14:00:22;4.13;;;2.15;;
25717;SDS011;13574;52.040;5.692;2023-02-28T14:03:13;4.65;;;2.10;;
25717;SDS011;13574;52.040;5.692;2023-02-28T14:09:23;3.53;;;2.00;;
25717;SDS011;13574;52.040;5.692;2023-02-28T14:11:53;3.20;;;2.20;;
25717;SDS011;13574;52.040;5.692;2023-02-28T14:17:04;4.70;;;2.38;;
25717;SDS011;13574;52.040;5.692;2023-02-28T14:19:37;3.85;;;2.08;;
25717;SDS011;13574;52.040;5.692;2023-02-28T14:22:19;3.30;;;2.15;;
25717;SDS011;13574;52.040;5.692;2023-02-28T14:30:40;3.80;;;2.00;;
25717;SDS011;13574;52.040;5.692;2023-02-28T14:38:36;3.53;;;2.00;;
25717;SDS011;13574;52.040;5.692;2023-02-28T14:41:14;3.28;;;2.03;;
25717;SDS011;13574;52.040;5.692;2023-02-28T14:43:48;5.07;;;2.58;;
25717;SDS011;13574;52.040;5.692;2023-02-28T14:46:16;3.55;;;2.35;;
25717;SDS011;13574;52.040;5.692;2023-02-28T14:48:45;4.25;;;2.17;;
25717;SDS011;13574;52.040;5.692;2023-02-28T14:51:11;3.55;;;2.25;;
25717;SDS011;13574;52.040;5.692;2023-02-28T14:56:17;3.20;;;2.15;;
25717;SDS011;13574;52.040;5.692;2023-02-28T14:58:50;3.00;;;2.20;;
25717;SDS011;13574;52.040;5.692;2023-02-28T15:01:18;2.42;;;1.50;;
25717;SDS011;13574;52.040;5.692;2023-02-28T15:03:47;6.50;;;5.53;;
25717;SDS011;13574;52.040;5.692;2023-02-28T15:06:16;4.07;;;3.30;;
25717;SDS011;13574;52.040;5.692;2023-02-28T15:08:43;3.55;;;2.50;;
25717;SDS011;13574;52.040;5.692;2023-02-28T15:11:14;7.80;;;2.00;;
25717;SDS011;13574;52.040;5.692;2023-02-28T15:13:45;3.38;;;2.20;;
25717;SDS011;13574;52.040;5.692;2023-02-28T15:19:00;4.63;;;2.13;;
25717;SDS011;13574;52.040;5.692;2023-02-28T15:26:37;3.50;;;2.40;;
25717;SDS011;13574;52.040;5.692;2023-02-28T15:29:23;6.15;;;2.65;;
25717;SDS011;13574;52.040;5.692;2023-02-28T15:34:33;3.08;;;1.95;;
25717;SDS011;13574;52.040;5.692;2023-02-28T15:37:06;5.35;;;2.47;;
25717;SDS011;13574;52.040;5.692;2023-02-28T15:39:51;3.10;;;2.25;;
25717;SDS011;13574;52.040;5.692;2023-02-28T15:42:19;4.97;;;2.10;;
25717;SDS011;13574;52.040;5.692;2023-02-28T15:44:46;3.90;;;2.00;;
25717;SDS011;13574;52.040;5.692;2023-02-28T15:47:16;7.43;;;2.33;;
25717;SDS011;13574;52.040;5.692;2023-02-28T15:49:47;3.72;;;2.17;;
25717;SDS011;13574;52.040;5.692;2023-02-28T15:52:24;4.18;;;2.70;;
25717;SDS011;13574;52.040;5.692;2023-02-28T15:54:51;3.63;;;2.53;;
25717;SDS011;13574;52.040;5.692;2023-02-28T15:57:19;4.03;;;2.10;;
25717;SDS011;13574;52.040;5.692;2023-02-28T15:59:56;5.70;;;2.23;;
25717;SDS011;13574;52.040;5.692;2023-02-28T16:02:36;5.25;;;2.35;;
25717;SDS011;13574;52.040;5.692;2023-02-28T16:07:31;3.05;;;2.13;;
25717;SDS011;13574;52.040;5.692;2023-02-28T16:09:58;2.67;;;2.10;;
25717;SDS011;13574;52.040;5.692;2023-02-28T16:12:26;4.22;;;2.30;;
25717;SDS011;13574;52.040;5.692;2023-02-28T16:14:54;5.78;;;2.20;;
25717;SDS011;13574;52.040;5.692;2023-02-28T16:17:24;5.97;;;2.15;;
25717;SDS011;13574;52.040;5.692;2023-02-28T16:19:52;4.13;;;2.00;;
25717;SDS011;13574;52.040;5.692;2023-02-28T16:22:18;5.10;;;2.50;;
25717;SDS011;13574;52.040;5.692;2023-02-28T16:24:44;4.00;;;2.35;;
25717;SDS011;13574;52.040;5.692;2023-02-28T16:27:21;3.05;;;2.20;;
25717;SDS011;13574;52.040;5.692;2023-02-28T16:29:54;5.63;;;2.15;;
25717;SDS011;13574;52.040;5.692;2023-02-28T16:32:20;3.40;;;1.92;;
25717;SDS011;13574;52.040;5.692;2023-02-28T16:34:45;3.70;;;2.28;;
25717;SDS011;13574;52.040;5.692;2023-02-28T16:37:12;9.15;;;2.42;;
25717;SDS011;13574;52.040;5.692;2023-02-28T16:39:40;4.18;;;2.00;;
25717;SDS011;13574;52.040;5.692;2023-02-28T16:42:07;4.80;;;3.38;;
25717;SDS011;13574;52.040;5.692;2023-02-28T16:44:40;21.48;;;12.20;;
25717;SDS011;13574;52.040;5.692;2023-02-28T16:47:08;13.35;;;8.25;;
25717;SDS011;13574;52.040;5.692;2023-02-28T16:49:35;20.40;;;14.17;;
25717;SDS011;13574;52.040;5.692;2023-02-28T16:52:01;9.23;;;4.75;;
25717;SDS011;13574;52.040;5.692;2023-02-28T16:54:27;6.07;;;4.57;;
25717;SDS011;13574;52.040;5.692;2023-02-28T16:56:53;53.88;;;25.17;;
25717;SDS011;13574;52.040;5.692;2023-02-28T16:59:19;32.60;;;17.13;;
25717;SDS011;13574;52.040;5.692;2023-02-28T17:01:48;22.80;;;12.57;;
25717;SDS011;13574;52.040;5.692;2023-02-28T17:04:15;61.50;;;29.85;;
25717;SDS011;13574;52.040;5.692;2023-02-28T17:06:43;31.35;;;17.98;;
25717;SDS011;13574;52.040;5.692;2023-02-28T17:09:22;4.75;;;3.47;;
25717;SDS011;13574;52.040;5.692;2023-02-28T17:11:48;4.13;;;2.70;;
25717;SDS011;13574;52.040;5.692;2023-02-28T17:14:14;4.38;;;2.80;;
25717;SDS011;13574;52.040;5.692;2023-02-28T17:16:41;6.65;;;4.50;;
25717;SDS011;13574;52.040;5.692;2023-02-28T17:19:11;5.88;;;3.75;;
25717;SDS011;13574;52.040;5.692;2023-02-28T17:21:38;6.07;;;3.92;;
25717;SDS011;13574;52.040;5.692;2023-02-28T17:24:07;4.05;;;3.25;;
25717;SDS011;13574;52.040;5.692;2023-02-28T17:26:33;4.88;;;2.85;;
25717;SDS011;13574;52.040;5.692;2023-02-28T17:28:58;4.53;;;2.22;;
25717;SDS011;13574;52.040;5.692;2023-02-28T17:31:25;9.70;;;6.82;;
25717;SDS011;13574;52.040;5.692;2023-02-28T17:33:51;11.25;;;6.78;;
25717;SDS011;13574;52.040;5.692;2023-02-28T17:36:20;7.00;;;4.47;;
25717;SDS011;13574;52.040;5.692;2023-02-28T17:38:48;11.07;;;6.18;;